sensor_id;sensor_type;location;lat;lon;timestamp;P1;durP1;ratioP1;P2;durP2;ratioP2
48161;SDS011;33950;48.154;16.316;2022-07-05T00:01:14;5.90;;;3.10;;
48161;SDS011;33950;48.154;16.316;2022-07-05T00:03:40;7.00;;;3.50;;
48161;SDS011;33950;48.154;16.316;2022-07-05T00:06:06;6.45;;;3.35;;
48161;SDS011;33950;48.154;16.316;2022-07-05T00:08:32;3.42;;;3.13;;
48161;SDS011;33950;48.154;16.316;2022-07-05T00:10:58;9.10;;;3.92;;
48161;SDS011;33950;48.154;16.316;2022-07-05T00:13:23;3.38;;;3.03;;
48161;SDS011;33950;48.154;16.316;2022-07-05T00:15:49;3.80;;;2.70;;
48161;SDS011;33950;48.154;16.316;2022-07-05T00:18:18;4.07;;;2.92;;
48161;SDS011;33950;48.154;16.316;2022-07-05T00:20:44;3.03;;;2.72;;
48161;SDS011;33950;48.154;16.316;2022-07-05T00:23:10;3.63;;;2.97;;
48161;SDS011;33950;48.154;16.316;2022-07-05T00:25:36;4.80;;;3.15;;
48161;SDS011;33950;48.154;16.316;2022-07-05T00:28:02;6.68;;;2.85;;
48161;SDS011;33950;48.154;16.316;2022-07-05T00:30:29;6.63;;;2.97;;
48161;SDS011;33950;48.154;16.316;2022-07-05T00:32:54;3.60;;;2.90;;
48161;SDS011;33950;48.154;16.316;2022-07-05T00:35:21;6.63;;;3.08;;
48161;SDS011;33950;48.154;16.316;2022-07-05T00:37:47;5.75;;;2.90;;
48161;SDS011;33950;48.154;16.316;2022-07-05T00:40:13;3.95;;;2.90;;
48161;SDS011;33950;48.154;16.316;2022-07-05T00:42:39;6.00;;;2.78;;
48161;SDS011;33950;48.154;16.316;2022-07-05T00:45:05;3.05;;;2.22;;
48161;SDS011;33950;48.154;16.316;2022-07-05T00:47:32;4.18;;;2.45;;
48161;SDS011;33950;48.154;16.316;2022-07-05T00:49:58;4.95;;;2.83;;
48161;SDS011;33950;48.154;16.316;2022-07-05T00:52:26;4.20;;;2.78;;
48161;SDS011;33950;48.154;16.316;2022-07-05T00:54:51;4.45;;;2.63;;
48161;SDS011;33950;48.154;16.316;2022-07-05T00:57:19;4.35;;;2.70;;
48161;SDS011;33950;48.154;16.316;2022-07-05T00:59:46;7.25;;;2.60;;
48161;SDS011;33950;48.154;16.316;2022-07-05T01:02:11;8.30;;;2.83;;
48161;SDS011;33950;48.154;16.316;2022-07-05T01:04:37;3.40;;;2.50;;
48161;SDS011;33950;48.154;16.316;2022-07-05T01:07:03;8.70;;;2.45;;
48161;SDS011;33950;48.154;16.316;2022-07-05T01:09:32;4.07;;;2.50;;
48161;SDS011;33950;48.154;16.316;2022-07-05T01:12:00;3.97;;;2.08;;
48161;SDS011;33950;48.154;16.316;2022-07-05T01:14:25;2.22;;;2.00;;
48161;SDS011;33950;48.154;16.316;2022-07-05T01:16:52;3.63;;;2.53;;
48161;SDS011;33950;48.154;16.316;2022-07-05T01:19:18;3.45;;;1.95;;
48161;SDS011;33950;48.154;16.316;2022-07-05T01:21:45;5.85;;;2.50;;
48161;SDS011;33950;48.154;16.316;2022-07-05T01:24:14;3.20;;;2.30;;
48161;SDS011;33950;48.154;16.316;2022-07-05T01:26:42;2.40;;;2.20;;
48161;SDS011;33950;48.154;16.316;2022-07-05T01:29:09;7.40;;;2.50;;
48161;SDS011;33950;48.154;16.316;2022-07-05T01:31:36;3.80;;;2.30;;
48161;SDS011;33950;48.154;16.316;2022-07-05T01:34:03;3.90;;;2.10;;
48161;SDS011;33950;48.154;16.316;2022-07-05T01:36:28;5.85;;;2.42;;
48161;SDS011;33950;48.154;16.316;2022-07-05T01:38:55;2.25;;;1.95;;
48161;SDS011;33950;48.154;16.316;2022-07-05T01:41:22;4.30;;;2.40;;
48161;SDS011;33950;48.154;16.316;2022-07-05T01:43:48;2.70;;;2.20;;
48161;SDS011;33950;48.154;16.316;2022-07-05T01:46:14;4.65;;;2.60;;
48161;SDS011;33950;48.154;16.316;2022-07-05T01:48:41;2.67;;;2.33;;
48161;SDS011;33950;48.154;16.316;2022-07-05T01:51:10;3.08;;;2.10;;
48161;SDS011;33950;48.154;16.316;2022-07-05T01:53:43;5.03;;;2.30;;
48161;SDS011;33950;48.154;16.316;2022-07-05T01:56:11;4.15;;;2.10;;
48161;SDS011;33950;48.154;16.316;2022-07-05T01:58:38;4.13;;;1.98;;
48161;SDS011;33950;48.154;16.316;2022-07-05T02:01:05;3.97;;;2.08;;
48161;SDS011;33950;48.154;16.316;2022-07-05T02:03:30;3.50;;;2.30;;
48161;SDS011;33950;48.154;16.316;2022-07-05T02:05:56;12.23;;;2.28;;
48161;SDS011;33950;48.154;16.316;2022-07-05T02:08:25;3.20;;;2.17;;
48161;SDS011;33950;48.154;16.316;2022-07-05T02:10:54;2.17;;;1.98;;
48161;SDS011;33950;48.154;16.316;2022-07-05T02:13:19;4.88;;;1.98;;
48161;SDS011;33950;48.154;16.316;2022-07-05T02:15:47;4.97;;;2.30;;
48161;SDS011;33950;48.154;16.316;2022-07-05T02:18:13;2.25;;;2.05;;
48161;SDS011;33950;48.154;16.316;2022-07-05T02:20:40;3.85;;;2.20;;
48161;SDS011;33950;48.154;16.316;2022-07-05T02:23:06;2.50;;;2.22;;
48161;SDS011;33950;48.154;16.316;2022-07-05T02:25:32;3.70;;;1.65;;
48161;SDS011;33950;48.154;16.316;2022-07-05T02:27:58;6.90;;;1.85;;
48161;SDS011;33950;48.154;16.316;2022-07-05T02:30:24;2.42;;;1.90;;
48161;SDS011;33950;48.154;16.316;2022-07-05T02:32:51;2.95;;;1.60;;
48161;SDS011;33950;48.154;16.316;2022-07-05T02:35:17;3.97;;;2.05;;
48161;SDS011;33950;48.154;16.316;2022-07-05T02:37:43;7.47;;;2.10;;
48161;SDS011;33950;48.154;16.316;2022-07-05T02:40:09;3.13;;;1.92;;
48161;SDS011;33950;48.154;16.316;2022-07-05T02:42:36;3.58;;;1.90;;
48161;SDS011;33950;48.154;16.316;2022-07-05T02:45:02;4.47;;;1.80;;
48161;SDS011;33950;48.154;16.316;2022-07-05T02:47:29;4.32;;;1.92;;
48161;SDS011;33950;48.154;16.316;2022-07-05T02:49:57;5.53;;;1.83;;
48161;SDS011;33950;48.154;16.316;2022-07-05T02:52:22;1.85;;;1.55;;
48161;SDS011;33950;48.154;16.316;2022-07-05T02:54:48;2.03;;;1.70;;
48161;SDS011;33950;48.154;16.316;2022-07-05T02:57:14;2.72;;;2.03;;
48161;SDS011;33950;48.154;16.316;2022-07-05T02:59:40;3.60;;;1.88;;
48161;SDS011;33950;48.154;16.316;2022-07-05T03:02:05;2.25;;;1.80;;
48161;SDS011;33950;48.154;16.316;2022-07-05T03:04:31;2.42;;;2.00;;
48161;SDS011;33950;48.154;16.316;2022-07-05T03:06:58;5.95;;;1.92;;
48161;SDS011;33950;48.154;16.316;2022-07-05T03:09:24;2.33;;;2.13;;
48161;SDS011;33950;48.154;16.316;2022-07-05T03:11:50;2.85;;;1.70;;
48161;SDS011;33950;48.154;16.316;2022-07-05T03:14:16;2.83;;;2.08;;
48161;SDS011;33950;48.154;16.316;2022-07-05T03:16:42;2.42;;;1.73;;
48161;SDS011;33950;48.154;16.316;2022-07-05T03:19:09;2.35;;;1.73;;
48161;SDS011;33950;48.154;16.316;2022-07-05T03:21:35;1.75;;;1.60;;
48161;SDS011;33950;48.154;16.316;2022-07-05T03:24:03;2.80;;;1.70;;
48161;SDS011;33950;48.154;16.316;2022-07-05T03:26:29;1.80;;;1.70;;
48161;SDS011;33950;48.154;16.316;2022-07-05T03:28:54;5.78;;;2.40;;
48161;SDS011;33950;48.154;16.316;2022-07-05T03:31:20;3.00;;;2.10;;
48161;SDS011;33950;48.154;16.316;2022-07-05T03:33:46;3.80;;;2.20;;
48161;SDS011;33950;48.154;16.316;2022-07-05T03:36:12;2.08;;;1.88;;
48161;SDS011;33950;48.154;16.316;2022-07-05T03:38:38;4.93;;;2.25;;
48161;SDS011;33950;48.154;16.316;2022-07-05T03:41:05;3.65;;;1.98;;
48161;SDS011;33950;48.154;16.316;2022-07-05T03:43:31;2.63;;;2.17;;
48161;SDS011;33950;48.154;16.316;2022-07-05T03:45:57;2.75;;;2.30;;
48161;SDS011;33950;48.154;16.316;2022-07-05T03:48:22;3.47;;;2.60;;
48161;SDS011;33950;48.154;16.316;2022-07-05T03:50:48;4.22;;;2.35;;
48161;SDS011;33950;48.154;16.316;2022-07-05T03:53:14;2.22;;;2.13;;
48161;SDS011;33950;48.154;16.316;2022-07-05T03:55:40;4.53;;;2.60;;
48161;SDS011;33950;48.154;16.316;2022-07-05T03:58:07;2.42;;;1.92;;
48161;SDS011;33950;48.154;16.316;2022-07-05T04:00:33;4.45;;;2.40;;
48161;SDS011;33950;48.154;16.316;2022-07-05T04:02:59;4.43;;;2.53;;
48161;SDS011;33950;48.154;16.316;2022-07-05T04:05:25;5.13;;;3.03;;
48161;SDS011;33950;48.154;16.316;2022-07-05T04:07:52;3.38;;;2.78;;
48161;SDS011;33950;48.154;16.316;2022-07-05T04:10:19;5.18;;;2.60;;
48161;SDS011;33950;48.154;16.316;2022-07-05T04:12:45;3.60;;;2.33;;
48161;SDS011;33950;48.154;16.316;2022-07-05T04:15:13;7.15;;;3.00;;
48161;SDS011;33950;48.154;16.316;2022-07-05T04:17:46;4.75;;;2.30;;
48161;SDS011;33950;48.154;16.316;2022-07-05T04:20:13;5.00;;;2.70;;
48161;SDS011;33950;48.154;16.316;2022-07-05T04:22:39;5.55;;;2.17;;
48161;SDS011;33950;48.154;16.316;2022-07-05T04:25:05;3.03;;;2.28;;
48161;SDS011;33950;48.154;16.316;2022-07-05T04:27:43;4.32;;;2.53;;
48161;SDS011;33950;48.154;16.316;2022-07-05T04:30:10;2.90;;;2.13;;
48161;SDS011;33950;48.154;16.316;2022-07-05T04:32:37;4.18;;;1.77;;
48161;SDS011;33950;48.154;16.316;2022-07-05T04:35:03;3.13;;;1.88;;
48161;SDS011;33950;48.154;16.316;2022-07-05T04:37:29;2.28;;;1.90;;
48161;SDS011;33950;48.154;16.316;2022-07-05T04:39:55;2.50;;;1.60;;
48161;SDS011;33950;48.154;16.316;2022-07-05T04:42:21;4.22;;;2.00;;
48161;SDS011;33950;48.154;16.316;2022-07-05T04:44:47;4.45;;;1.60;;
48161;SDS011;33950;48.154;16.316;2022-07-05T04:47:12;7.35;;;1.88;;
48161;SDS011;33950;48.154;16.316;2022-07-05T04:49:40;2.00;;;1.73;;
48161;SDS011;33950;48.154;16.316;2022-07-05T04:52:05;4.13;;;2.05;;
48161;SDS011;33950;48.154;16.316;2022-07-05T04:54:31;3.13;;;1.95;;
48161;SDS011;33950;48.154;16.316;2022-07-05T04:56:57;6.88;;;2.38;;
48161;SDS011;33950;48.154;16.316;2022-07-05T04:59:23;4.07;;;2.10;;
48161;SDS011;33950;48.154;16.316;2022-07-05T05:01:49;3.08;;;1.88;;
48161;SDS011;33950;48.154;16.316;2022-07-05T05:04:15;2.15;;;1.60;;
48161;SDS011;33950;48.154;16.316;2022-07-05T05:06:42;3.15;;;1.70;;
48161;SDS011;33950;48.154;16.316;2022-07-05T05:09:07;1.95;;;1.70;;
48161;SDS011;33950;48.154;16.316;2022-07-05T05:11:33;3.47;;;1.50;;
48161;SDS011;33950;48.154;16.316;2022-07-05T05:13:59;4.32;;;2.03;;
48161;SDS011;33950;48.154;16.316;2022-07-05T05:16:25;4.78;;;2.03;;
48161;SDS011;33950;48.154;16.316;2022-07-05T05:18:51;3.25;;;2.35;;
48161;SDS011;33950;48.154;16.316;2022-07-05T05:21:17;2.38;;;1.75;;
48161;SDS011;33950;48.154;16.316;2022-07-05T05:23:44;5.95;;;1.70;;
48161;SDS011;33950;48.154;16.316;2022-07-05T05:26:10;2.40;;;1.58;;
48161;SDS011;33950;48.154;16.316;2022-07-05T05:28:35;3.38;;;2.00;;
48161;SDS011;33950;48.154;16.316;2022-07-05T05:31:01;3.78;;;1.70;;
48161;SDS011;33950;48.154;16.316;2022-07-05T05:33:27;3.67;;;1.42;;
48161;SDS011;33950;48.154;16.316;2022-07-05T05:35:53;3.30;;;1.80;;
48161;SDS011;33950;48.154;16.316;2022-07-05T05:38:18;1.95;;;1.55;;
48161;SDS011;33950;48.154;16.316;2022-07-05T05:40:45;5.18;;;1.83;;
48161;SDS011;33950;48.154;16.316;2022-07-05T05:43:11;3.83;;;1.60;;
48161;SDS011;33950;48.154;16.316;2022-07-05T05:45:37;5.80;;;1.63;;
48161;SDS011;33950;48.154;16.316;2022-07-05T05:48:03;4.05;;;1.67;;
48161;SDS011;33950;48.154;16.316;2022-07-05T05:50:30;2.70;;;2.03;;
48161;SDS011;33950;48.154;16.316;2022-07-05T05:52:56;3.38;;;1.70;;
48161;SDS011;33950;48.154;16.316;2022-07-05T05:55:22;2.83;;;2.30;;
48161;SDS011;33950;48.154;16.316;2022-07-05T05:57:51;3.10;;;1.80;;
48161;SDS011;33950;48.154;16.316;2022-07-05T06:00:18;2.97;;;1.80;;
48161;SDS011;33950;48.154;16.316;2022-07-05T06:02:44;6.47;;;1.83;;
48161;SDS011;33950;48.154;16.316;2022-07-05T06:05:11;4.32;;;1.80;;
48161;SDS011;33950;48.154;16.316;2022-07-05T06:07:44;2.17;;;1.58;;
48161;SDS011;33950;48.154;16.316;2022-07-05T06:10:14;2.10;;;1.55;;
48161;SDS011;33950;48.154;16.316;2022-07-05T06:12:41;2.33;;;1.98;;
48161;SDS011;33950;48.154;16.316;2022-07-05T06:15:08;5.75;;;2.05;;
48161;SDS011;33950;48.154;16.316;2022-07-05T06:17:35;3.63;;;1.92;;
48161;SDS011;33950;48.154;16.316;2022-07-05T06:20:03;5.78;;;1.98;;
48161;SDS011;33950;48.154;16.316;2022-07-05T06:22:29;6.50;;;1.80;;
48161;SDS011;33950;48.154;16.316;2022-07-05T06:24:55;3.05;;;1.70;;
48161;SDS011;33950;48.154;16.316;2022-07-05T06:27:21;4.82;;;2.20;;
48161;SDS011;33950;48.154;16.316;2022-07-05T06:29:47;2.03;;;1.83;;
48161;SDS011;33950;48.154;16.316;2022-07-05T06:32:14;2.25;;;1.73;;
48161;SDS011;33950;48.154;16.316;2022-07-05T06:34:40;1.90;;;1.65;;
48161;SDS011;33950;48.154;16.316;2022-07-05T06:37:05;2.50;;;1.73;;
48161;SDS011;33950;48.154;16.316;2022-07-05T06:39:31;2.45;;;1.75;;
48161;SDS011;33950;48.154;16.316;2022-07-05T06:41:58;1.77;;;1.50;;
48161;SDS011;33950;48.154;16.316;2022-07-05T06:44:24;1.85;;;1.60;;
48161;SDS011;33950;48.154;16.316;2022-07-05T06:46:50;3.30;;;1.98;;
48161;SDS011;33950;48.154;16.316;2022-07-05T06:49:17;3.55;;;1.65;;
48161;SDS011;33950;48.154;16.316;2022-07-05T06:51:43;2.83;;;1.40;;
48161;SDS011;33950;48.154;16.316;2022-07-05T06:54:09;1.80;;;1.70;;
48161;SDS011;33950;48.154;16.316;2022-07-05T06:56:35;1.80;;;1.50;;
48161;SDS011;33950;48.154;16.316;2022-07-05T06:59:00;1.65;;;1.55;;
48161;SDS011;33950;48.154;16.316;2022-07-05T07:01:26;1.50;;;1.40;;
48161;SDS011;33950;48.154;16.316;2022-07-05T07:03:52;1.40;;;1.30;;
48161;SDS011;33950;48.154;16.316;2022-07-05T07:06:19;1.65;;;1.25;;
48161;SDS011;33950;48.154;16.316;2022-07-05T07:08:45;1.63;;;1.52;;
48161;SDS011;33950;48.154;16.316;2022-07-05T07:11:30;1.98;;;1.25;;
48161;SDS011;33950;48.154;16.316;2022-07-05T07:13:56;1.48;;;1.30;;
48161;SDS011;33950;48.154;16.316;2022-07-05T07:16:22;1.38;;;1.23;;
48161;SDS011;33950;48.154;16.316;2022-07-05T07:18:48;2.75;;;1.20;;
48161;SDS011;33950;48.154;16.316;2022-07-05T07:21:14;1.20;;;1.10;;
48161;SDS011;33950;48.154;16.316;2022-07-05T07:23:41;2.20;;;1.00;;
48161;SDS011;33950;48.154;16.316;2022-07-05T07:26:07;2.15;;;1.27;;
48161;SDS011;33950;48.154;16.316;2022-07-05T07:28:33;2.40;;;0.95;;
48161;SDS011;33950;48.154;16.316;2022-07-05T07:30:58;2.00;;;1.25;;
48161;SDS011;33950;48.154;16.316;2022-07-05T07:33:24;1.90;;;1.17;;
48161;SDS011;33950;48.154;16.316;2022-07-05T07:35:50;2.38;;;1.17;;
48161;SDS011;33950;48.154;16.316;2022-07-05T07:38:16;9.48;;;1.58;;
48161;SDS011;33950;48.154;16.316;2022-07-05T07:40:43;3.40;;;1.20;;
48161;SDS011;33950;48.154;16.316;2022-07-05T07:43:09;8.98;;;1.50;;
48161;SDS011;33950;48.154;16.316;2022-07-05T07:45:34;0.98;;;0.82;;
48161;SDS011;33950;48.154;16.316;2022-07-05T07:48:00;1.65;;;0.68;;
48161;SDS011;33950;48.154;16.316;2022-07-05T07:50:26;3.92;;;1.23;;
48161;SDS011;33950;48.154;16.316;2022-07-05T07:52:52;4.45;;;1.15;;
48161;SDS011;33950;48.154;16.316;2022-07-05T07:55:18;0.80;;;0.80;;
48161;SDS011;33950;48.154;16.316;2022-07-05T07:57:45;0.50;;;0.50;;
48161;SDS011;33950;48.154;16.316;2022-07-05T08:00:11;2.17;;;0.98;;
48161;SDS011;33950;48.154;16.316;2022-07-05T08:02:37;0.68;;;0.60;;
48161;SDS011;33950;48.154;16.316;2022-07-05T08:05:03;0.88;;;0.80;;
48161;SDS011;33950;48.154;16.316;2022-07-05T08:07:30;0.85;;;0.70;;
48161;SDS011;33950;48.154;16.316;2022-07-05T08:09:57;0.50;;;0.50;;
48161;SDS011;33950;48.154;16.316;2022-07-05T08:12:22;0.70;;;0.40;;
48161;SDS011;33950;48.154;16.316;2022-07-05T08:14:49;0.50;;;0.35;;
48161;SDS011;33950;48.154;16.316;2022-07-05T08:17:15;0.52;;;0.52;;
48161;SDS011;33950;48.154;16.316;2022-07-05T08:19:41;3.03;;;0.50;;
48161;SDS011;33950;48.154;16.316;2022-07-05T08:22:25;0.68;;;0.28;;
48161;SDS011;33950;48.154;16.316;2022-07-05T08:24:51;3.60;;;0.43;;
48161;SDS011;33950;48.154;16.316;2022-07-05T08:27:17;1.25;;;0.50;;
48161;SDS011;33950;48.154;16.316;2022-07-05T08:29:43;0.63;;;0.30;;
48161;SDS011;33950;48.154;16.316;2022-07-05T08:32:10;0.77;;;0.47;;
48161;SDS011;33950;48.154;16.316;2022-07-05T08:34:36;1.95;;;0.82;;
48161;SDS011;33950;48.154;16.316;2022-07-05T08:37:02;0.70;;;0.70;;
48161;SDS011;33950;48.154;16.316;2022-07-05T08:39:28;0.65;;;0.52;;
48161;SDS011;33950;48.154;16.316;2022-07-05T08:41:54;3.72;;;0.90;;
48161;SDS011;33950;48.154;16.316;2022-07-05T08:44:22;1.38;;;0.77;;
48161;SDS011;33950;48.154;16.316;2022-07-05T08:46:49;3.90;;;0.63;;
48161;SDS011;33950;48.154;16.316;2022-07-05T08:49:21;0.70;;;0.70;;
48161;SDS011;33950;48.154;16.316;2022-07-05T08:51:48;6.07;;;0.82;;
48161;SDS011;33950;48.154;16.316;2022-07-05T08:54:15;0.80;;;0.80;;
48161;SDS011;33950;48.154;16.316;2022-07-05T08:56:42;1.80;;;0.95;;
48161;SDS011;33950;48.154;16.316;2022-07-05T08:59:08;1.35;;;0.80;;
48161;SDS011;33950;48.154;16.316;2022-07-05T09:01:34;2.15;;;0.77;;
48161;SDS011;33950;48.154;16.316;2022-07-05T09:04:02;1.30;;;1.13;;
48161;SDS011;33950;48.154;16.316;2022-07-05T09:06:32;0.70;;;0.70;;
48161;SDS011;33950;48.154;16.316;2022-07-05T09:09:01;1.48;;;0.60;;
48161;SDS011;33950;48.154;16.316;2022-07-05T09:11:29;1.48;;;1.05;;
48161;SDS011;33950;48.154;16.316;2022-07-05T09:13:59;0.80;;;0.80;;
48161;SDS011;33950;48.154;16.316;2022-07-05T09:16:28;4.43;;;0.70;;
48161;SDS011;33950;48.154;16.316;2022-07-05T09:18:54;2.45;;;1.10;;
48161;SDS011;33950;48.154;16.316;2022-07-05T09:21:22;4.32;;;1.00;;
48161;SDS011;33950;48.154;16.316;2022-07-05T09:23:56;0.82;;;0.82;;
48161;SDS011;33950;48.154;16.316;2022-07-05T09:26:26;1.48;;;0.75;;
48161;SDS011;33950;48.154;16.316;2022-07-05T09:28:56;2.20;;;0.95;;
48161;SDS011;33950;48.154;16.316;2022-07-05T09:31:26;0.77;;;0.60;;
48161;SDS011;33950;48.154;16.316;2022-07-05T09:33:53;4.03;;;0.83;;
48161;SDS011;33950;48.154;16.316;2022-07-05T09:36:19;0.98;;;0.90;;
48161;SDS011;33950;48.154;16.316;2022-07-05T09:38:49;0.68;;;0.68;;
48161;SDS011;33950;48.154;16.316;2022-07-05T09:41:17;1.10;;;0.90;;
48161;SDS011;33950;48.154;16.316;2022-07-05T09:43:43;3.40;;;1.00;;
48161;SDS011;33950;48.154;16.316;2022-07-05T09:46:09;1.10;;;0.80;;
48161;SDS011;33950;48.154;16.316;2022-07-05T09:48:35;1.30;;;1.15;;
48161;SDS011;33950;48.154;16.316;2022-07-05T09:51:04;2.67;;;1.08;;
48161;SDS011;33950;48.154;16.316;2022-07-05T09:53:43;2.42;;;1.75;;
48161;SDS011;33950;48.154;16.316;2022-07-05T09:56:10;1.45;;;1.10;;
48161;SDS011;33950;48.154;16.316;2022-07-05T09:58:38;1.23;;;1.13;;
48161;SDS011;33950;48.154;16.316;2022-07-05T10:01:05;5.15;;;1.73;;
48161;SDS011;33950;48.154;16.316;2022-07-05T10:03:51;1.17;;;1.08;;
48161;SDS011;33950;48.154;16.316;2022-07-05T10:06:18;4.15;;;0.85;;
48161;SDS011;33950;48.154;16.316;2022-07-05T10:08:44;1.20;;;1.08;;
48161;SDS011;33950;48.154;16.316;2022-07-05T10:11:13;1.58;;;1.13;;
48161;SDS011;33950;48.154;16.316;2022-07-05T10:13:41;2.70;;;1.02;;
48161;SDS011;33950;48.154;16.316;2022-07-05T10:16:07;3.05;;;1.20;;
48161;SDS011;33950;48.154;16.316;2022-07-05T10:18:33;0.85;;;0.80;;
48161;SDS011;33950;48.154;16.316;2022-07-05T10:20:59;2.50;;;1.67;;
48161;SDS011;33950;48.154;16.316;2022-07-05T10:23:29;19.92;;;7.13;;
48161;SDS011;33950;48.154;16.316;2022-07-05T10:25:55;27.10;;;11.82;;
48161;SDS011;33950;48.154;16.316;2022-07-05T10:28:23;43.55;;;20.20;;
48161;SDS011;33950;48.154;16.316;2022-07-05T10:30:50;2.17;;;1.83;;
48161;SDS011;33950;48.154;16.316;2022-07-05T10:33:17;2.58;;;1.67;;
48161;SDS011;33950;48.154;16.316;2022-07-05T10:35:45;5.45;;;1.85;;
48161;SDS011;33950;48.154;16.316;2022-07-05T10:38:12;1.80;;;1.63;;
48161;SDS011;33950;48.154;16.316;2022-07-05T10:40:39;3.40;;;2.00;;
48161;SDS011;33950;48.154;16.316;2022-07-05T10:43:07;2.40;;;1.80;;
48161;SDS011;33950;48.154;16.316;2022-07-05T10:45:35;4.35;;;1.92;;
48161;SDS011;33950;48.154;16.316;2022-07-05T10:48:16;3.05;;;1.75;;
48161;SDS011;33950;48.154;16.316;2022-07-05T10:50:43;4.13;;;1.92;;
48161;SDS011;33950;48.154;16.316;2022-07-05T10:53:10;5.18;;;2.13;;
48161;SDS011;33950;48.154;16.316;2022-07-05T10:55:46;2.40;;;1.70;;
48161;SDS011;33950;48.154;16.316;2022-07-05T10:58:30;2.47;;;1.85;;
48161;SDS011;33950;48.154;16.316;2022-07-05T11:04:10;5.15;;;2.20;;
48161;SDS011;33950;48.154;16.316;2022-07-05T11:06:41;3.42;;;1.95;;
48161;SDS011;33950;48.154;16.316;2022-07-05T11:09:17;2.08;;;1.88;;
48161;SDS011;33950;48.154;16.316;2022-07-05T11:11:45;2.97;;;2.17;;
48161;SDS011;33950;48.154;16.316;2022-07-05T11:14:35;3.15;;;2.20;;
48161;SDS011;33950;48.154;16.316;2022-07-05T11:17:12;3.22;;;2.55;;
48161;SDS011;33950;48.154;16.316;2022-07-05T11:20:02;2.75;;;2.47;;
48161;SDS011;33950;48.154;16.316;2022-07-05T11:22:33;7.55;;;2.67;;
48161;SDS011;33950;48.154;16.316;2022-07-05T11:25:00;10.27;;;2.67;;
48161;SDS011;33950;48.154;16.316;2022-07-05T11:27:27;2.45;;;2.25;;
48161;SDS011;33950;48.154;16.316;2022-07-05T11:29:53;4.53;;;3.30;;
48161;SDS011;33950;48.154;16.316;2022-07-05T11:32:20;4.47;;;2.20;;
48161;SDS011;33950;48.154;16.316;2022-07-05T11:34:47;2.90;;;2.45;;
48161;SDS011;33950;48.154;16.316;2022-07-05T11:37:21;2.78;;;2.35;;
48161;SDS011;33950;48.154;16.316;2022-07-05T11:42:54;4.35;;;2.70;;
48161;SDS011;33950;48.154;16.316;2022-07-05T11:45:20;4.28;;;2.83;;
48161;SDS011;33950;48.154;16.316;2022-07-05T11:47:46;2.35;;;2.15;;
48161;SDS011;33950;48.154;16.316;2022-07-05T11:50:12;3.10;;;2.72;;
48161;SDS011;33950;48.154;16.316;2022-07-05T11:52:39;4.15;;;2.83;;
48161;SDS011;33950;48.154;16.316;2022-07-05T11:55:07;4.57;;;3.45;;
48161;SDS011;33950;48.154;16.316;2022-07-05T11:57:33;2.90;;;2.28;;
48161;SDS011;33950;48.154;16.316;2022-07-05T11:59:59;4.72;;;3.17;;
48161;SDS011;33950;48.154;16.316;2022-07-05T12:02:25;2.80;;;2.60;;
48161;SDS011;33950;48.154;16.316;2022-07-05T12:04:52;4.20;;;3.30;;
48161;SDS011;33950;48.154;16.316;2022-07-05T12:07:25;3.20;;;2.90;;
48161;SDS011;33950;48.154;16.316;2022-07-05T12:09:52;5.63;;;3.05;;
48161;SDS011;33950;48.154;16.316;2022-07-05T12:12:37;3.13;;;2.83;;
48161;SDS011;33950;48.154;16.316;2022-07-05T12:17:36;3.78;;;3.38;;
48161;SDS011;33950;48.154;16.316;2022-07-05T12:20:03;3.78;;;3.20;;
48161;SDS011;33950;48.154;16.316;2022-07-05T12:22:29;4.03;;;3.35;;
48161;SDS011;33950;48.154;16.316;2022-07-05T12:24:58;6.03;;;3.25;;
48161;SDS011;33950;48.154;16.316;2022-07-05T12:27:24;3.53;;;3.22;;
48161;SDS011;33950;48.154;16.316;2022-07-05T12:29:50;3.67;;;3.03;;
48161;SDS011;33950;48.154;16.316;2022-07-05T12:32:16;5.60;;;2.97;;
48161;SDS011;33950;48.154;16.316;2022-07-05T12:34:42;4.55;;;3.15;;
48161;SDS011;33950;48.154;16.316;2022-07-05T12:37:07;5.57;;;3.53;;
48161;SDS011;33950;48.154;16.316;2022-07-05T12:39:34;4.05;;;3.08;;
48161;SDS011;33950;48.154;16.316;2022-07-05T12:42:01;3.35;;;3.00;;
48161;SDS011;33950;48.154;16.316;2022-07-05T12:44:27;3.53;;;3.22;;
48161;SDS011;33950;48.154;16.316;2022-07-05T12:47:02;3.38;;;3.00;;
48161;SDS011;33950;48.154;16.316;2022-07-05T12:49:29;5.13;;;2.97;;
48161;SDS011;33950;48.154;16.316;2022-07-05T12:51:55;3.55;;;2.78;;
48161;SDS011;33950;48.154;16.316;2022-07-05T12:54:29;2.88;;;2.67;;
48161;SDS011;33950;48.154;16.316;2022-07-05T12:57:15;3.90;;;3.03;;
48161;SDS011;33950;48.154;16.316;2022-07-05T13:00:00;5.47;;;2.88;;
48161;SDS011;33950;48.154;16.316;2022-07-05T13:02:35;5.78;;;3.38;;
48161;SDS011;33950;48.154;16.316;2022-07-05T13:05:03;9.05;;;3.17;;
48161;SDS011;33950;48.154;16.316;2022-07-05T13:07:29;3.30;;;2.92;;
48161;SDS011;33950;48.154;16.316;2022-07-05T13:09:55;3.55;;;3.20;;
48161;SDS011;33950;48.154;16.316;2022-07-05T13:12:40;3.92;;;3.33;;
48161;SDS011;33950;48.154;16.316;2022-07-05T13:15:06;5.63;;;2.78;;
48161;SDS011;33950;48.154;16.316;2022-07-05T13:17:32;3.67;;;2.88;;
48161;SDS011;33950;48.154;16.316;2022-07-05T13:19:58;3.55;;;3.22;;
48161;SDS011;33950;48.154;16.316;2022-07-05T13:22:25;3.13;;;2.70;;
48161;SDS011;33950;48.154;16.316;2022-07-05T13:24:50;3.15;;;2.53;;
48161;SDS011;33950;48.154;16.316;2022-07-05T13:27:16;3.45;;;2.60;;
48161;SDS011;33950;48.154;16.316;2022-07-05T13:29:43;4.25;;;3.00;;
48161;SDS011;33950;48.154;16.316;2022-07-05T13:32:10;4.43;;;2.90;;
48161;SDS011;33950;48.154;16.316;2022-07-05T13:34:35;2.85;;;2.65;;
48161;SDS011;33950;48.154;16.316;2022-07-05T13:37:01;2.72;;;2.53;;
48161;SDS011;33950;48.154;16.316;2022-07-05T13:39:27;4.97;;;2.83;;
48161;SDS011;33950;48.154;16.316;2022-07-05T13:41:54;8.80;;;3.03;;
48161;SDS011;33950;48.154;16.316;2022-07-05T13:44:21;2.70;;;2.50;;
48161;SDS011;33950;48.154;16.316;2022-07-05T13:46:48;3.38;;;2.63;;
48161;SDS011;33950;48.154;16.316;2022-07-05T13:49:14;3.30;;;2.90;;
48161;SDS011;33950;48.154;16.316;2022-07-05T13:51:40;6.30;;;2.80;;
48161;SDS011;33950;48.154;16.316;2022-07-05T13:54:06;3.28;;;2.85;;
48161;SDS011;33950;48.154;16.316;2022-07-05T13:56:32;5.50;;;3.65;;
48161;SDS011;33950;48.154;16.316;2022-07-05T14:01:25;6.97;;;2.97;;
48161;SDS011;33950;48.154;16.316;2022-07-05T14:03:53;5.28;;;2.70;;
48161;SDS011;33950;48.154;16.316;2022-07-05T14:06:19;3.40;;;3.10;;
48161;SDS011;33950;48.154;16.316;2022-07-05T14:08:45;9.13;;;3.50;;
48161;SDS011;33950;48.154;16.316;2022-07-05T14:11:10;3.38;;;2.72;;
48161;SDS011;33950;48.154;16.316;2022-07-05T14:13:37;2.72;;;2.47;;
48161;SDS011;33950;48.154;16.316;2022-07-05T14:16:04;2.95;;;2.53;;
48161;SDS011;33950;48.154;16.316;2022-07-05T14:18:30;3.53;;;3.22;;
48161;SDS011;33950;48.154;16.316;2022-07-05T14:20:57;4.82;;;3.45;;
48161;SDS011;33950;48.154;16.316;2022-07-05T14:23:23;4.68;;;2.90;;
48161;SDS011;33950;48.154;16.316;2022-07-05T14:25:49;3.70;;;2.88;;
48161;SDS011;33950;48.154;16.316;2022-07-05T14:28:14;2.63;;;2.42;;
48161;SDS011;33950;48.154;16.316;2022-07-05T14:30:41;3.08;;;2.88;;
48161;SDS011;33950;48.154;16.316;2022-07-05T14:33:08;5.72;;;3.40;;
48161;SDS011;33950;48.154;16.316;2022-07-05T14:35:34;3.55;;;2.78;;
48161;SDS011;33950;48.154;16.316;2022-07-05T14:38:02;3.92;;;2.95;;
48161;SDS011;33950;48.154;16.316;2022-07-05T14:40:28;3.30;;;3.00;;
48161;SDS011;33950;48.154;16.316;2022-07-05T14:42:55;3.80;;;3.00;;
48161;SDS011;33950;48.154;16.316;2022-07-05T14:45:25;4.55;;;3.50;;